Time;durP1;ratioP1;P1;durP2;ratioP2;P2;SDS_P1;SDS_P2;PMS_P1;PMS_P2;Temp;Humidity;BMP_temperature;BMP_pressure;BME280_temperature;BME280_humidity;BME280_pressure;Samples;Min_cycle;Max_cycle;Signal;HPM_P1;HPM_P2
2024/02/15 00:00:59;;;;;;;13.30;5.65;;;;;12.30;101169.00;;;;10355036;28;20308;-78
2024/02/15 00:06:02;;;;;;;14.27;5.03;;;;;12.30;101171.00;;;;10359619;28;20703;-79
2024/02/15 00:11:03;;;;;;;14.65;5.47;;;;;12.30;101172.00;;;;10364001;28;20230;-78
2024/02/15 00:16:04;;;;;;;11.57;4.63;;;;;12.30;101163.00;;;;10372995;28;20702;-78
2024/02/15 00:21:06;;;;;;;12.82;5.35;;;;;12.20;101156.00;;;;10410611;28;20225;-79
2024/02/15 00:26:07;;;;;;;11.77;5.13;;;;;12.20;101156.00;;;;10366859;28;20750;-77
2024/02/15 00:31:08;;;;;;;12.80;4.82;;;;;12.30;101153.00;;;;10405383;28;20226;-78
2024/02/15 00:36:10;;;;;;;8.75;4.40;;;;;12.30;101146.00;;;;10423879;28;20230;-76
2024/02/15 00:41:11;;;;;;;10.95;3.72;;;;;12.40;101146.00;;;;10392634;28;20227;-77
2024/02/15 00:46:12;;;;;;;13.38;3.83;;;;;12.40;101140.00;;;;10383431;28;20817;-78
2024/02/15 00:51:13;;;;;;;20.58;4.13;;;;;12.50;101134.00;;;;10381870;28;20225;-78
2024/02/15 00:56:14;;;;;;;8.75;3.65;;;;;12.50;101131.00;;;;10383289;28;20226;-80
2024/02/15 01:01:15;;;;;;;14.93;3.53;;;;;12.50;101134.00;;;;10373572;28;20301;-77
2024/02/15 01:06:17;;;;;;;11.40;3.10;;;;;12.50;101142.00;;;;10394978;28;20222;-76
2024/02/15 01:11:18;;;;;;;7.82;3.33;;;;;12.50;101132.00;;;;10380803;28;20250;-75
2024/02/15 01:16:21;;;;;;;8.27;3.20;;;;;12.50;101135.00;;;;10391769;28;20314;-74
2024/02/15 01:21:22;;;;;;;12.18;3.85;;;;;12.50;101132.00;;;;10382997;28;20373;-77
2024/02/15 01:26:23;;;;;;;13.27;3.22;;;;;12.60;101119.00;;;;10395033;28;20211;-75
2024/02/15 01:31:24;;;;;;;13.73;3.20;;;;;12.50;101118.00;;;;10368943;28;20247;-75
2024/02/15 01:36:26;;;;;;;10.00;3.63;;;;;12.60;101117.00;;;;10395918;28;20819;-75
2024/02/15 01:41:27;;;;;;;11.18;2.55;;;;;12.60;101105.00;;;;10398937;28;20229;-74
2024/02/15 01:46:32;;;;;;;6.18;2.33;;;;;12.60;101087.00;;;;10383509;28;20219;-76
2024/02/15 01:51:37;;;;;;;9.90;3.42;;;;;12.50;101080.00;;;;10392925;28;20562;-77
2024/02/15 01:56:38;;;;;;;13.07;2.58;;;;;12.40;101092.00;;;;10378670;28;20293;-75
2024/02/15 02:01:39;;;;;;;8.88;2.40;;;;;12.30;101093.00;;;;10385242;28;20219;-79
2024/02/15 02:06:40;;;;;;;7.85;2.55;;;;;12.30;101089.00;;;;10378992;28;20305;-80
2024/02/15 02:11:46;;;;;;;9.82;2.65;;;;;12.30;101095.00;;;;10381564;28;20954;-80
2024/02/15 02:16:47;;;;;;;8.38;2.72;;;;;12.30;101085.00;;;;10378947;28;20625;-83
2024/02/15 02:21:50;;;;;;;9.27;2.50;;;;;12.30;101085.00;;;;10392419;28;20298;-81
2024/02/15 02:26:53;;;;;;;11.27;2.75;;;;;12.30;101081.00;;;;10400533;28;20302;-78
2024/02/15 02:31:55;;;;;;;10.35;2.75;;;;;12.30;101084.00;;;;10375604;28;20230;-79
2024/02/15 02:36:56;;;;;;;10.63;2.40;;;;;12.30;101072.00;;;;10405525;28;20258;-79
2024/02/15 02:41:58;;;;;;;9.57;2.33;;;;;12.30;101051.00;;;;10389727;28;20225;-83
2024/02/15 02:46:59;;;;;;;7.13;2.20;;;;;12.30;101063.00;;;;10355348;28;20253;-79
2024/02/15 02:52:01;;;;;;;5.78;2.15;;;;;12.30;101059.00;;;;10390122;28;20218;-79
2024/02/15 02:57:06;;;;;;;10.52;2.60;;;;;12.30;101055.00;;;;10374986;28;20249;-79
2024/02/15 03:02:08;;;;;;;7.18;2.20;;;;;12.30;101052.00;;;;10403833;28;20587;-81
2024/02/15 03:07:09;;;;;;;9.43;2.40;;;;;12.20;101050.00;;;;10383182;28;20275;-82
2024/02/15 03:12:10;;;;;;;8.00;2.15;;;;;12.20;101048.00;;;;10405094;28;20228;-81
2024/02/15 03:17:11;;;;;;;7.80;2.07;;;;;12.20;101047.00;;;;10390953;28;20227;-80
2024/02/15 03:22:13;;;;;;;7.53;2.67;;;;;12.30;101042.00;;;;10402892;28;20742;-80
2024/02/15 03:27:14;;;;;;;8.20;2.37;;;;;12.30;101048.00;;;;10416089;28;20768;-83
2024/02/15 03:32:16;;;;;;;6.63;2.28;;;;;12.30;101060.00;;;;10388190;28;20688;-85
2024/02/15 03:37:18;;;;;;;6.72;2.10;;;;;12.30;101046.00;;;;10395535;28;20249;-84
2024/02/15 03:42:19;;;;;;;6.97;2.20;;;;;12.10;101039.00;;;;10385036;28;20807;-86
2024/02/15 03:47:23;;;;;;;6.68;2.17;;;;;12.00;101028.00;;;;10375045;28;20218;-84
2024/02/15 03:52:27;;;;;;;4.00;1.90;;;;;11.90;101028.00;;;;10373932;28;20237;-83
2024/02/15 03:57:29;;;;;;;5.03;2.00;;;;;11.90;101016.00;;;;10399974;28;20324;-84
2024/02/15 04:02:30;;;;;;;7.63;2.33;;;;;11.90;101019.00;;;;10380545;28;20899;-84
2024/02/15 04:07:32;;;;;;;10.27;2.33;;;;;11.90;101012.00;;;;10382517;28;20218;-84
2024/02/15 04:12:33;;;;;;;3.43;2.00;;;;;11.90;101008.00;;;;10412979;28;20234;-86
2024/02/15 04:17:35;;;;;;;6.22;2.20;;;;;11.90;101021.00;;;;10400396;28;20218;-85
2024/02/15 04:22:38;;;;;;;11.73;2.17;;;;;11.90;101014.00;;;;10407462;28;20214;-84
2024/02/15 04:27:39;;;;;;;7.83;2.30;;;;;11.90;101002.00;;;;10386086;28;20210;-84
2024/02/15 04:32:41;;;;;;;8.23;2.22;;;;;11.80;101012.00;;;;10388986;28;20363;-84
2024/02/15 04:37:42;;;;;;;6.60;2.27;;;;;11.80;101009.00;;;;10402223;28;20230;-84
2024/02/15 04:42:45;;;;;;;5.93;2.17;;;;;11.70;101019.00;;;;10422254;28;20218;-87
2024/02/15 04:47:53;;;;;;;5.37;2.37;;;;;11.70;101015.00;;;;10410417;28;20293;-85
2024/02/15 04:52:55;;;;;;;6.78;2.03;;;;;11.70;101009.00;;;;10408309;28;20312;-87
2024/02/15 04:57:56;;;;;;;7.50;1.90;;;;;11.60;100993.00;;;;10426112;28;20229;-87
2024/02/15 05:02:58;;;;;;;4.05;2.30;;;;;11.60;100990.00;;;;10385492;28;20705;-86
2024/02/15 05:08:01;;;;;;;5.47;2.77;;;;;11.60;100982.00;;;;10388728;28;20229;-88
2024/02/15 05:13:02;;;;;;;4.47;2.10;;;;;11.60;100970.00;;;;10392427;28;20249;-88
2024/02/15 05:18:04;;;;;;;7.20;2.03;;;;;11.60;100969.00;;;;10384744;28;20354;-87
2024/02/15 05:23:05;;;;;;;7.40;2.33;;;;;11.60;100969.00;;;;10384390;28;20216;-87
2024/02/15 05:28:08;;;;;;;5.37;2.10;;;;;11.70;100956.00;;;;10395119;28;20223;-87
2024/02/15 05:33:10;;;;;;;8.30;2.20;;;;;11.70;100934.00;;;;10428470;28;20264;-88
2024/02/15 05:38:15;;;;;;;5.67;1.97;;;;;11.70;100941.00;;;;10372185;28;20744;-88
2024/02/15 05:43:17;;;;;;;7.67;2.70;;;;;11.70;100935.00;;;;10383776;28;20218;-87
2024/02/15 05:48:18;;;;;;;2.87;2.00;;;;;11.70;100943.00;;;;10395229;28;20223;-78
2024/02/15 05:53:20;;;;;;;4.37;2.20;;;;;11.70;100944.00;;;;10384270;28;20270;-79
2024/02/15 05:58:21;;;;;;;5.23;2.30;;;;;11.70;100952.00;;;;10383459;28;20768;-77
2024/02/15 06:03:23;;;;;;;6.80;2.00;;;;;11.70;100945.00;;;;10399386;28;20254;-77
2024/02/15 06:08:30;;;;;;;4.22;1.98;;;;;11.70;100938.00;;;;10391396;28;20300;-79
2024/02/15 06:13:32;;;;;;;7.93;1.77;;;;;11.70;100941.00;;;;10406462;28;20218;-78
2024/02/15 06:18:33;;;;;;;6.77;1.87;;;;;11.70;100948.00;;;;10408001;28;20302;-76
2024/02/15 06:23:35;;;;;;;6.57;2.20;;;;;11.70;100947.00;;;;10375769;28;20231;-77
2024/02/15 06:44:36;;;;;;;4.47;1.87;;;;;11.60;100939.00;;;;10397703;28;20226;-78
2024/02/15 06:49:40;;;;;;;6.00;2.10;;;;;11.50;100930.00;;;;10416147;28;21008;-77
2024/02/15 06:54:42;;;;;;;4.97;1.87;;;;;11.50;100934.00;;;;10400408;28;20276;-86
2024/02/15 06:59:46;;;;;;;5.80;2.20;;;;;11.50;100926.00;;;;10407885;28;20214;-86
2024/02/15 07:04:49;;;;;;;5.23;2.17;;;;;11.50;100916.00;;;;10407912;28;20227;-86
2024/02/15 07:09:51;;;;;;;8.50;1.50;;;;;11.60;100915.00;;;;10390607;28;20292;-86
2024/02/15 07:14:52;;;;;;;6.30;1.80;;;;;11.60;100914.00;;;;10389079;28;20262;-87
2024/02/15 07:19:53;;;;;;;6.57;1.50;;;;;11.70;100936.00;;;;10393804;28;20248;-87
2024/02/15 07:24:54;;;;;;;7.57;2.10;;;;;11.80;100946.00;;;;10376973;28;20579;-87
2024/02/15 07:29:57;;;;;;;6.83;2.07;;;;;11.80;100943.00;;;;10401839;28;20211;-87
2024/02/15 07:34:58;;;;;;;4.27;2.20;;;;;11.90;100941.00;;;;10393839;28;20680;-86
2024/02/15 07:39:59;;;;;;;6.03;3.33;;;;;11.90;100953.00;;;;10397728;28;20218;-87
2024/02/15 07:45:01;;;;;;;6.73;1.60;;;;;12.00;100956.00;;;;10395262;28;20242;-86
2024/02/15 07:50:03;;;;;;;10.90;2.60;;;;;12.20;100953.00;;;;10388897;28;20571;-88
2024/02/15 07:55:08;;;;;;;6.18;2.83;;;;;12.30;100954.00;;;;10401775;28;20223;-86
2024/02/15 08:00:11;;;;;;;5.80;2.03;;;;;12.30;100956.00;;;;10391920;28;20206;-87
2024/02/15 08:05:14;;;;;;;5.07;1.48;;;;;12.50;100961.00;;;;10370706;28;20612;-76
2024/02/15 08:10:15;;;;;;;3.60;1.75;;;;;12.60;100954.00;;;;10359187;28;20871;-77
2024/02/15 08:15:17;;;;;;;6.97;2.03;;;;;12.70;100952.00;;;;10397129;28;20254;-76
2024/02/15 08:20:21;;;;;;;7.68;2.15;;;;;12.90;100947.00;;;;10369061;28;20222;-76
2024/02/15 08:25:22;;;;;;;7.13;1.83;;;;;13.00;100950.00;;;;10380677;28;20222;-76
2024/02/15 08:30:23;;;;;;;3.20;1.45;;;;;13.10;100946.00;;;;10373674;28;21946;-77
2024/02/15 08:35:26;;;;;;;4.82;1.65;;;;;13.30;100936.00;;;;10388392;28;20625;-76
2024/02/15 08:40:28;;;;;;;3.05;1.40;;;;;13.50;100944.00;;;;10386750;28;20234;-79
2024/02/15 08:45:29;;;;;;;3.42;1.60;;;;;13.60;100937.00;;;;10370277;28;21198;-76
2024/02/15 08:50:31;;;;;;;4.78;1.98;;;;;13.80;100936.00;;;;10385991;28;21144;-75
2024/02/15 08:55:35;;;;;;;4.55;1.60;;;;;14.00;100938.00;;;;10410817;28;20222;-78
2024/02/15 09:00:40;;;;;;;8.45;1.70;;;;;14.20;100946.00;;;;10407668;28;20302;-75
2024/02/15 09:05:42;;;;;;;4.38;1.98;;;;;14.40;100952.00;;;;10421586;28;20214;-75
2024/02/15 09:10:43;;;;;;;5.32;2.40;;;;;14.70;100935.00;;;;10429453;28;20332;-76
2024/02/15 09:15:47;;;;;;;5.28;1.60;;;;;14.80;100934.00;;;;10384274;28;20305;-85
2024/02/15 09:20:52;;;;;;;3.28;1.73;;;;;15.00;100941.00;;;;10397830;28;20631;-84
2024/02/15 09:25:53;;;;;;;5.10;2.00;;;;;15.10;100942.00;;;;10428985;28;20865;-86
2024/02/15 09:30:59;;;;;;;3.55;1.55;;;;;15.30;100941.00;;;;10414529;28;20244;-84
2024/02/15 09:36:00;;;;;;;4.45;1.98;;;;;15.50;100930.00;;;;10403598;28;20304;-87
2024/02/15 09:41:02;;;;;;;6.90;1.98;;;;;15.80;100931.00;;;;10401873;28;20230;-85
2024/02/15 09:46:08;;;;;;;2.60;1.65;;;;;16.10;100919.00;;;;10401593;28;20619;-87
2024/02/15 09:51:12;;;;;;;5.22;1.90;;;;;16.10;100918.00;;;;10396681;28;20230;-86
2024/02/15 09:56:15;;;;;;;4.00;1.38;;;;;16.40;100921.00;;;;10414133;28;20853;-85
2024/02/15 10:01:22;;;;;;;7.50;1.63;;;;;16.70;100909.00;;;;10409388;28;20652;-87
2024/02/15 10:06:24;;;;;;;5.57;1.60;;;;;16.60;100904.00;;;;10377128;28;20214;-84
2024/02/15 10:11:25;;;;;;;3.35;1.33;;;;;16.50;100921.00;;;;10388444;28;20234;-84
2024/02/15 10:16:26;;;;;;;3.20;1.38;;;;;16.30;100909.00;;;;10411448;28;20222;-86
2024/02/15 10:21:33;;;;;;;3.65;1.92;;;;;16.30;100912.00;;;;10410354;28;20261;-84
2024/02/15 10:26:35;;;;;;;5.38;1.33;;;;;16.40;100911.00;;;;10415353;28;20759;-77
2024/02/15 10:31:38;;;;;;;2.72;1.30;;;;;16.50;100912.00;;;;10392209;28;20314;-79
2024/02/15 10:36:39;;;;;;;4.40;1.40;;;;;16.60;100907.00;;;;10409048;28;20272;-78
2024/02/15 10:41:41;;;;;;;7.18;1.70;;;;;16.70;100903.00;;;;10405233;28;20242;-78
2024/02/15 10:46:45;;;;;;;2.80;1.23;;;;;17.00;100894.00;;;;10412537;28;20270;-78
2024/02/15 10:51:54;;;;;;;5.63;1.65;;;;;17.40;100873.00;;;;10399457;28;20260;-77
2024/02/15 10:57:03;;;;;;;4.28;1.50;;;;;17.60;100863.00;;;;10403951;28;20260;-78
2024/02/15 11:02:34;;;;;;;3.42;1.40;;;;;17.80;100858.00;;;;10386899;28;20217;-77
2024/02/15 11:07:36;;;;;;;2.88;1.60;;;;;17.90;100855.00;;;;10400835;28;20218;-78
2024/02/15 11:12:38;;;;;;;3.92;1.40;;;;;17.90;100834.00;;;;10391467;28;20801;-77
2024/02/15 11:17:50;;;;;;;2.78;1.13;;;;;17.70;100828.00;;;;10404709;28;20247;-79
2024/02/15 11:22:57;;;;;;;4.28;1.30;;;;;17.50;100844.00;;;;10382872;28;20704;-77
2024/02/15 11:28:21;;;;;;;3.30;1.27;;;;;17.50;100825.00;;;;10384513;28;20213;-77
2024/02/15 11:33:29;;;;;;;4.15;1.27;;;;;17.60;100813.00;;;;10387843;28;20900;-79
2024/02/15 11:38:31;;;;;;;4.40;1.73;;;;;17.80;100805.00;;;;10393291;28;20218;-84
2024/02/15 11:43:49;;;;;;;5.25;2.03;;;;;18.20;100790.00;;;;10374853;28;20268;-86
2024/02/15 11:48:56;;;;;;;5.50;2.47;;;;;17.90;100782.00;;;;10407221;28;20268;-85
2024/02/15 11:54:05;;;;;;;2.95;1.67;;;;;17.60;100781.00;;;;10391967;28;20231;-85
2024/02/15 11:59:07;;;;;;;3.55;1.88;;;;;17.60;100782.00;;;;10386129;28;20222;-84
2024/02/15 12:20:11;;;;;;;3.28;1.52;;;;;17.30;100756.00;;;;10421933;28;20212;-86
2024/02/15 12:25:16;;;;;;;4.22;1.35;;;;;17.20;100736.00;;;;10411050;28;20226;-86
2024/02/15 12:30:21;;;;;;;4.78;1.42;;;;;17.00;100737.00;;;;10405468;28;20241;-85
2024/02/15 12:35:23;;;;;;;4.88;1.50;;;;;16.80;100746.00;;;;10405790;28;20219;-86
2024/02/15 12:40:30;;;;;;;3.67;1.50;;;;;16.70;100736.00;;;;10415324;28;20699;-85
2024/02/15 12:45:36;;;;;;;6.53;1.65;;;;;17.00;100715.00;;;;10404342;28;20795;-81
2024/02/15 12:50:38;;;;;;;3.83;1.33;;;;;17.40;100702.00;;;;10380858;28;20229;-81
2024/02/15 12:55:40;;;;;;;5.40;1.65;;;;;18.00;100698.00;;;;10383629;28;20267;-82
2024/02/15 13:00:42;;;;;;;3.75;1.30;;;;;18.50;100680.00;;;;10394044;28;20218;-82
2024/02/15 13:05:43;;;;;;;2.47;1.65;;;;;18.60;100662.00;;;;10404406;28;20297;-80
2024/02/15 13:10:46;;;;;;;3.53;1.20;;;;;18.70;100644.00;;;;10402091;28;20230;-79
2024/02/15 13:15:48;;;;;;;3.00;1.50;;;;;18.40;100644.00;;;;10384058;28;21081;-80
2024/02/15 13:20:53;;;;;;;3.42;1.10;;;;;18.30;100636.00;;;;10390648;28;20222;-82
2024/02/15 13:25:56;;;;;;;2.42;1.05;;;;;18.70;100629.00;;;;10390507;28;20267;-80
2024/02/15 13:30:58;;;;;;;2.97;0.93;;;;;18.70;100614.00;;;;10380638;28;20226;-81
2024/02/15 13:35:59;;;;;;;4.10;1.02;;;;;18.70;100607.00;;;;10407671;28;20296;-78
2024/02/15 13:41:03;;;;;;;1.27;1.00;;;;;18.70;100608.00;;;;10398719;28;20587;-80
2024/02/15 13:46:04;;;;;;;3.30;1.40;;;;;18.80;100595.00;;;;10428316;28;20218;-83
2024/02/15 13:51:09;;;;;;;3.30;1.02;;;;;19.10;100588.00;;;;10421367;28;20224;-80
2024/02/15 13:56:10;;;;;;;3.53;0.90;;;;;19.50;100574.00;;;;10435815;28;20256;-80
2024/02/15 14:01:14;;;;;;;1.58;0.88;;;;;19.50;100573.00;;;;10404173;28;20222;-79
2024/02/15 14:06:18;;;;;;;3.55;1.05;;;;;19.20;100569.00;;;;10429813;28;20275;-80
2024/02/15 14:11:19;;;;;;;1.50;0.80;;;;;18.70;100559.00;;;;10401277;28;20229;-80
2024/02/15 14:16:20;;;;;;;1.27;0.90;;;;;18.20;100562.00;;;;10389259;28;20230;-82
2024/02/15 14:21:22;;;;;;;1.38;0.80;;;;;18.30;100556.00;;;;10390365;28;20251;-80
2024/02/15 14:26:26;;;;;;;4.13;0.90;;;;;18.30;100551.00;;;;10391024;28;20234;-81
2024/02/15 14:36:47;;;;;;;2.05;0.68;;;;;18.00;100526.00;;;;10425717;28;20698;-80
2024/02/15 14:41:48;;;;;;;5.97;1.00;;;;;18.00;100527.00;;;;10429691;28;20232;-80
2024/02/15 14:46:51;;;;;;;3.38;0.95;;;;;17.90;100509.00;;;;10416332;28;20252;-79
2024/02/15 14:51:52;;;;;;;1.73;1.00;;;;;17.90;100523.00;;;;10430695;28;21019;-80
2024/02/15 14:56:54;;;;;;;2.95;0.93;;;;;17.80;100534.00;;;;10411385;28;20368;-82
2024/02/15 15:01:57;;;;;;;1.30;0.93;;;;;17.60;100526.00;;;;10411966;28;20232;-81
2024/02/15 15:12:40;;;;;;;2.83;1.10;;;;;17.10;100533.00;;;;10399321;28;20279;-77
2024/02/15 15:17:42;;;;;;;3.63;1.75;;;;;17.00;100532.00;;;;10406315;28;20247;-77
2024/02/15 15:22:44;;;;;;;2.22;1.42;;;;;17.00;100531.00;;;;10407311;28;20647;-77
2024/02/15 15:27:45;;;;;;;4.03;1.15;;;;;17.10;100525.00;;;;10385687;28;20226;-78
2024/02/15 15:32:46;;;;;;;2.35;1.20;;;;;17.00;100540.00;;;;10385980;28;20241;-78
2024/02/15 15:37:50;;;;;;;4.00;1.42;;;;;17.00;100522.00;;;;10397070;28;20735;-78
2024/02/15 15:42:52;;;;;;;2.45;1.10;;;;;16.80;100523.00;;;;10411964;28;20218;-78
2024/02/15 15:47:53;;;;;;;3.00;1.50;;;;;16.50;100540.00;;;;10387963;28;20218;-77
2024/02/15 15:52:58;;;;;;;2.97;1.70;;;;;16.30;100545.00;;;;10425925;28;20638;-78
2024/02/15 15:58:00;;;;;;;3.03;1.30;;;;;16.00;100543.00;;;;10412824;28;20320;-78
2024/02/15 16:03:04;;;;;;;2.78;1.20;;;;;15.80;100548.00;;;;10406359;28;20252;-78
2024/02/15 16:08:05;;;;;;;2.97;1.23;;;;;15.60;100550.00;;;;10409535;28;20275;-79
2024/02/15 16:13:06;;;;;;;2.83;1.08;;;;;15.50;100544.00;;;;10392523;28;20249;-78
2024/02/15 16:18:08;;;;;;;3.78;1.02;;;;;15.30;100551.00;;;;10397270;28;20292;-79
2024/02/15 16:23:09;;;;;;;2.95;1.40;;;;;15.20;100551.00;;;;10400138;28;20241;-79
2024/02/15 16:28:10;;;;;;;2.17;1.17;;;;;15.00;100538.00;;;;10408617;28;20221;-80
2024/02/15 16:33:11;;;;;;;4.43;1.33;;;;;14.90;100531.00;;;;10416013;28;20218;-79
2024/02/15 16:38:13;;;;;;;1.83;1.10;;;;;14.90;100546.00;;;;10399562;28;20683;-78
2024/02/15 16:43:14;;;;;;;2.42;1.00;;;;;14.70;100544.00;;;;10433188;28;20314;-78
2024/02/15 16:48:16;;;;;;;2.17;1.13;;;;;14.60;100549.00;;;;10392826;28;20217;-79
2024/02/15 16:53:17;;;;;;;3.08;0.98;;;;;14.50;100546.00;;;;10406578;28;22483;-79
2024/02/15 16:58:21;;;;;;;3.92;1.58;;;;;14.50;100541.00;;;;10389876;28;20214;-78
2024/02/15 17:03:22;;;;;;;4.13;2.67;;;;;14.30;100554.00;;;;10397423;28;20249;-79
2024/02/15 17:08:23;;;;;;;5.22;2.58;;;;;14.20;100529.00;;;;10413446;28;20264;-78
2024/02/15 17:13:24;;;;;;;7.60;2.28;;;;;14.10;100528.00;;;;10415032;28;20225;-79
2024/02/15 17:18:26;;;;;;;4.50;2.00;;;;;14.00;100541.00;;;;10429963;28;20222;-78
2024/02/15 17:23:28;;;;;;;4.97;2.20;;;;;13.90;100547.00;;;;10414365;28;20639;-79
2024/02/15 17:28:30;;;;;;;3.10;2.20;;;;;13.90;100545.00;;;;10417746;28;20394;-78
2024/02/15 17:33:31;;;;;;;7.15;2.15;;;;;13.80;100547.00;;;;10402614;28;20305;-78
2024/02/15 17:38:33;;;;;;;7.68;2.33;;;;;13.70;100531.00;;;;10415465;28;20240;-78
2024/02/15 17:43:35;;;;;;;3.03;1.45;;;;;13.60;100540.00;;;;10400644;28;20214;-79
2024/02/15 17:48:36;;;;;;;3.45;1.70;;;;;13.60;100522.00;;;;10376388;28;20210;-78
2024/02/15 17:53:40;;;;;;;3.42;2.20;;;;;13.60;100518.00;;;;10392707;28;20229;-79
2024/02/15 17:58:42;;;;;;;4.50;1.70;;;;;13.50;100516.00;;;;10404269;28;20233;-78
2024/02/15 18:03:43;;;;;;;4.90;2.55;;;;;13.50;100516.00;;;;10402099;28;20295;-79
2024/02/15 18:08:44;;;;;;;2.08;1.77;;;;;13.40;100511.00;;;;10399218;28;20735;-79
2024/02/15 18:13:46;;;;;;;4.30;2.05;;;;;13.40;100510.00;;;;10408391;28;20232;-79
2024/02/15 18:18:48;;;;;;;2.10;1.80;;;;;13.40;100495.00;;;;10409015;28;20871;-78
2024/02/15 18:23:50;;;;;;;3.47;1.70;;;;;13.40;100497.00;;;;10421085;28;20226;-80
2024/02/15 18:28:52;;;;;;;3.08;1.60;;;;;13.40;100502.00;;;;10392654;28;20236;-78
2024/02/15 18:33:54;;;;;;;1.92;1.63;;;;;13.40;100493.00;;;;10402327;28;20287;-78
2024/02/15 18:38:57;;;;;;;2.40;1.77;;;;;13.40;100482.00;;;;10386141;28;20603;-76
2024/02/15 18:43:59;;;;;;;4.28;1.75;;;;;13.40;100474.00;;;;10417395;28;20218;-77
2024/02/15 18:49:01;;;;;;;3.70;2.10;;;;;13.40;100476.00;;;;10394930;28;20221;-79
2024/02/15 18:54:02;;;;;;;4.00;2.00;;;;;13.40;100466.00;;;;10425493;28;20248;-76
2024/02/15 18:59:06;;;;;;;2.92;1.63;;;;;13.40;100448.00;;;;10401811;28;20226;-76
2024/02/15 19:04:07;;;;;;;4.50;1.98;;;;;13.30;100452.00;;;;10386550;28;20737;-75
2024/02/15 19:09:08;;;;;;;1.88;1.70;;;;;13.30;100451.00;;;;10411664;28;20664;-76
2024/02/15 19:14:11;;;;;;;3.75;2.50;;;;;13.30;100456.00;;;;10396006;28;20226;-77
2024/02/15 19:19:13;;;;;;;4.50;2.28;;;;;13.30;100446.00;;;;10392814;28;20250;-75
2024/02/15 19:24:14;;;;;;;3.83;1.92;;;;;13.20;100448.00;;;;10397938;28;20222;-77
2024/02/15 19:29:15;;;;;;;5.50;2.22;;;;;13.20;100435.00;;;;10412990;28;20245;-77
2024/02/15 19:34:18;;;;;;;2.85;1.95;;;;;13.20;100450.00;;;;10382919;28;20250;-75
2024/02/15 19:39:19;;;;;;;2.38;1.67;;;;;13.10;100462.00;;;;10402022;28;20400;-76
2024/02/15 19:44:21;;;;;;;2.10;1.73;;;;;13.00;100459.00;;;;10397059;28;20245;-78
2024/02/15 19:49:22;;;;;;;4.07;2.35;;;;;12.90;100452.00;;;;10417048;28;20946;-80
2024/02/15 19:54:24;;;;;;;6.25;2.55;;;;;12.90;100446.00;;;;10404575;28;20225;-80
2024/02/15 19:59:25;;;;;;;2.03;1.77;;;;;12.90;100452.00;;;;10419919;28;20926;-79
2024/02/15 20:04:27;;;;;;;3.50;2.00;;;;;12.90;100432.00;;;;10404671;28;20257;-79
2024/02/15 20:09:30;;;;;;;4.03;2.22;;;;;12.90;100412.00;;;;10430593;28;20662;-79
2024/02/15 20:14:48;;;;;;;5.68;2.45;;;;;12.90;100411.00;;;;10388161;28;20710;-80
2024/02/15 20:19:49;;;;;;;2.65;2.05;;;;;12.90;100402.00;;;;10410276;28;20849;-80
2024/02/15 20:24:50;;;;;;;3.03;2.10;;;;;12.80;100409.00;;;;10387321;28;20229;-79
2024/02/15 20:29:51;;;;;;;3.83;2.20;;;;;12.80;100401.00;;;;10404196;28;20267;-79
2024/02/15 20:34:53;;;;;;;2.58;1.75;;;;;12.80;100400.00;;;;10404815;28;20320;-79
2024/02/15 20:39:54;;;;;;;4.65;2.30;;;;;12.90;100393.00;;;;10417033;28;20241;-79
2024/02/15 20:44:55;;;;;;;3.78;2.10;;;;;12.90;100399.00;;;;10405110;28;20244;-80
2024/02/15 20:49:56;;;;;;;4.60;1.90;;;;;12.90;100405.00;;;;10404374;28;20849;-80
2024/02/15 20:54:58;;;;;;;4.20;1.77;;;;;13.00;100405.00;;;;10423535;28;20236;-80
2024/02/15 21:00:00;;;;;;;3.70;2.10;;;;;13.20;100397.00;;;;10399184;28;20310;-80
2024/02/15 21:05:02;;;;;;;3.55;2.20;;;;;13.20;100395.00;;;;10414243;28;20224;-80
2024/02/15 21:10:11;;;;;;;4.57;2.75;;;;;13.20;100378.00;;;;10412785;28;20225;-79
2024/02/15 21:15:13;;;;;;;4.28;2.00;;;;;13.20;100364.00;;;;10381082;28;20229;-78
2024/02/15 21:20:18;;;;;;;4.40;2.10;;;;;13.20;100377.00;;;;10392938;28;20225;-79
2024/02/15 21:25:19;;;;;;;3.17;2.10;;;;;13.20;100370.00;;;;10404898;28;20844;-80
2024/02/15 21:30:20;;;;;;;2.50;1.90;;;;;13.20;100375.00;;;;10401065;28;20218;-78
2024/02/15 21:35:22;;;;;;;3.20;2.20;;;;;13.20;100378.00;;;;10407726;28;20209;-80
2024/02/15 21:40:24;;;;;;;2.45;2.03;;;;;13.20;100371.00;;;;10399681;28;20226;-80
2024/02/15 21:45:25;;;;;;;2.55;2.15;;;;;13.20;100374.00;;;;10402732;28;20654;-81
2024/02/15 21:50:27;;;;;;;6.97;2.78;;;;;13.20;100369.00;;;;10403809;28;20289;-80
2024/02/15 21:55:28;;;;;;;3.42;2.10;;;;;13.20;100370.00;;;;10408162;28;20219;-79
2024/02/15 22:00:29;;;;;;;4.72;2.25;;;;;13.20;100377.00;;;;10413022;28;20221;-79
2024/02/15 22:05:30;;;;;;;4.03;1.90;;;;;13.20;100370.00;;;;10406788;28;20306;-86
2024/02/15 22:10:32;;;;;;;3.30;2.40;;;;;13.20;100370.00;;;;10440248;28;20225;-84
2024/02/15 22:15:33;;;;;;;4.15;2.00;;;;;13.20;100366.00;;;;10410343;28;20221;-86
2024/02/15 22:20:37;;;;;;;4.57;2.50;;;;;13.20;100366.00;;;;10425231;28;20227;-83
2024/02/15 22:25:38;;;;;;;3.63;2.40;;;;;13.10;100367.00;;;;10400656;28;20221;-87
2024/02/15 22:30:39;;;;;;;2.83;2.20;;;;;13.10;100364.00;;;;10406293;28;20221;-85
2024/02/15 22:35:41;;;;;;;3.30;2.17;;;;;13.10;100373.00;;;;10435182;28;20218;-86
2024/02/15 22:40:45;;;;;;;4.13;2.13;;;;;13.10;100377.00;;;;10407926;28;20226;-85
2024/02/15 22:45:46;;;;;;;4.30;2.08;;;;;13.00;100362.00;;;;10426665;28;20229;-83
2024/02/15 22:50:48;;;;;;;3.70;2.20;;;;;13.00;100366.00;;;;10432885;28;20228;-86
2024/02/15 22:55:49;;;;;;;3.00;1.95;;;;;13.00;100366.00;;;;10398377;28;20226;-85
2024/02/15 23:00:51;;;;;;;3.97;2.17;;;;;13.00;100364.00;;;;10441045;28;21041;-86
2024/02/15 23:05:52;;;;;;;4.45;2.15;;;;;13.00;100362.00;;;;10432473;28;20599;-85
2024/02/15 23:10:54;;;;;;;3.42;2.08;;;;;13.10;100352.00;;;;10442987;28;20340;-86
2024/02/15 23:15:59;;;;;;;4.55;1.88;;;;;13.10;100360.00;;;;10434408;28;20214;-87
2024/02/15 23:21:01;;;;;;;3.78;2.47;;;;;13.10;100360.00;;;;10426184;28;20724;-85
2024/02/15 23:26:02;;;;;;;3.72;2.40;;;;;13.10;100355.00;;;;10428185;28;20599;-85
2024/02/15 23:31:04;;;;;;;2.72;1.92;;;;;13.00;100376.00;;;;10429143;28;20232;-82
2024/02/15 23:41:25;;;;;;;3.50;2.55;;;;;12.90;100370.00;;;;10445847;28;20676;-87
2024/02/15 23:46:27;;;;;;;2.97;2.17;;;;;12.90;100375.00;;;;10402785;28;20222;-86
2024/02/15 23:51:28;;;;;;;3.95;2.30;;;;;12.80;100377.00;;;;10439012;28;20226;-84
2024/02/15 23:56:29;;;;;;;3.15;2.20;;;;;12.80;100373.00;;;;10452294;28;20218;-87
